Terminal Aerodrome Forecast
Issued by NWS

Home | Current Version | Previous Version | Text Only | Print | Product List | Glossary On
Versions: 1 2 3 4 5 6 7 8 9 10 11 12 13 14 15 16 17 18 19 20 21 22 23 24 25 26 27 28 29 30 31 32 33 34 35 36 37 38 39 40
000
FTUS45 KGJT 200537
TAFEGE
TAF
KEGE 200537Z 2006/2106 13003KT P6SM FEW080 BKN200
     FM201200 00000KT P6SM VCFG SCT050 BKN100
     FM201700 VRB02KT P6SM VCSH BKN050 BKN100
     FM210000 08007KT P6SM BKN060 OVC100
      AMD LTD TO CLD VIS AND WIND TIL 201400=

USA.gov is the U.S. government's official web portal to all federal, state and local government web resources and services.